createdAt,value
2017-09-25T00:00:18.494Z,14.80
2017-09-25T00:02:45.947Z,14.90
2017-09-25T00:05:13.435Z,14.90
2017-09-25T00:07:40.863Z,14.90
2017-09-25T00:10:08.326Z,15.00
2017-09-25T00:12:35.773Z,15.00
2017-09-25T00:15:03.235Z,15.10
2017-09-25T00:17:30.695Z,15.10
2017-09-25T00:19:58.177Z,15.10
2017-09-25T00:22:25.641Z,15.10
2017-09-25T00:24:53.100Z,15.20
2017-09-25T00:27:20.555Z,15.20
2017-09-25T00:29:48.023Z,15.20
2017-09-25T00:32:15.478Z,15.30
2017-09-25T00:34:42.926Z,15.30
2017-09-25T00:37:10.390Z,15.40
2017-09-25T00:39:37.842Z,15.30
2017-09-25T00:42:05.310Z,15.30
2017-09-25T00:44:32.791Z,15.20
2017-09-25T00:47:00.269Z,15.10
2017-09-25T00:49:27.731Z,15.20
2017-09-25T00:51:55.214Z,15.20
2017-09-25T00:54:22.675Z,15.20
2017-09-25T00:56:50.129Z,15.20
2017-09-25T00:59:28.350Z,15.30
2017-09-25T01:05:06.766Z,15.20
2017-09-25T01:07:34.247Z,15.30
2017-09-25T01:10:01.718Z,15.30
2017-09-25T01:12:29.200Z,15.30
2017-09-25T01:14:56.642Z,15.40
2017-09-25T01:17:24.866Z,15.30
2017-09-25T01:19:52.321Z,15.30
2017-09-25T01:22:19.769Z,15.20
2017-09-25T01:24:47.230Z,15.10
2017-09-25T01:27:14.693Z,15.10
2017-09-25T01:29:42.158Z,15.20
2017-09-25T01:32:09.620Z,15.20
2017-09-25T01:34:37.070Z,15.30
2017-09-25T01:37:04.521Z,15.20
2017-09-25T01:39:31.989Z,15.20
2017-09-25T01:41:59.438Z,15.30
2017-09-25T01:44:26.915Z,15.30
2017-09-25T01:46:54.394Z,15.40
2017-09-25T01:49:22.633Z,15.30
2017-09-25T01:51:50.090Z,15.30
2017-09-25T01:54:17.558Z,15.30
2017-09-25T01:56:45.011Z,15.20
2017-09-25T01:59:12.495Z,15.30
2017-09-25T02:01:39.951Z,15.20
2017-09-25T02:04:08.165Z,15.40
2017-09-25T02:06:35.617Z,15.40
2017-09-25T02:09:03.082Z,15.40
2017-09-25T02:11:30.542Z,15.30
2017-09-25T02:13:57.994Z,15.30
2017-09-25T02:16:25.450Z,15.30
2017-09-25T02:18:52.907Z,15.30
2017-09-25T02:21:20.356Z,15.30
2017-09-25T02:23:47.802Z,15.40
2017-09-25T02:26:15.253Z,15.30
2017-09-25T02:28:42.718Z,15.30
2017-09-25T02:31:10.169Z,15.30
2017-09-25T02:33:37.622Z,15.30
2017-09-25T02:36:05.094Z,15.30
2017-09-25T02:38:32.550Z,15.30
2017-09-25T02:40:59.994Z,15.20
2017-09-25T02:43:27.449Z,15.10
2017-09-25T02:45:54.905Z,15.10
2017-09-25T02:48:22.367Z,15.10
2017-09-25T02:50:49.838Z,15.00
2017-09-25T02:53:17.290Z,15.10
2017-09-25T02:55:44.747Z,15.20
2017-09-25T02:58:12.194Z,15.20
2017-09-25T03:00:39.646Z,15.20
2017-09-25T03:03:07.099Z,15.20
2017-09-25T03:05:34.564Z,15.20
2017-09-25T03:08:02.021Z,15.20
2017-09-25T03:10:29.469Z,15.20
2017-09-25T03:12:56.937Z,15.10
2017-09-25T03:15:24.391Z,15.00
2017-09-25T03:17:51.846Z,15.00
2017-09-25T03:20:19.295Z,15.10
2017-09-25T03:22:46.754Z,15.10
2017-09-25T03:25:14.205Z,15.10
2017-09-25T03:27:41.676Z,15.20
2017-09-25T03:30:09.118Z,15.20
2017-09-25T03:32:36.854Z,15.30
2017-09-25T03:35:04.331Z,15.40
2017-09-25T03:37:32.563Z,15.50
2017-09-25T03:40:00.058Z,15.50
2017-09-25T03:42:28.293Z,15.60
2017-09-25T03:44:55.762Z,15.60
2017-09-25T03:47:23.256Z,15.70
2017-09-25T03:49:50.731Z,15.70
2017-09-25T03:52:18.190Z,15.70
2017-09-25T03:54:45.646Z,15.70
2017-09-25T03:57:13.122Z,15.70
2017-09-25T03:59:40.605Z,15.70
2017-09-25T04:02:08.071Z,15.70
2017-09-25T04:04:35.546Z,15.70
2017-09-25T04:07:03.771Z,15.70
2017-09-25T04:09:31.242Z,15.60
2017-09-25T04:11:58.717Z,15.70
2017-09-25T04:14:26.198Z,15.70
2017-09-25T04:16:54.477Z,15.70
2017-09-25T04:19:21.955Z,15.70
2017-09-25T04:21:49.397Z,15.70
2017-09-25T04:24:16.851Z,15.70
2017-09-25T04:26:44.307Z,15.70
2017-09-25T04:29:11.758Z,15.70
2017-09-25T04:31:40.040Z,15.80
2017-09-25T04:34:07.538Z,15.80
2017-09-25T04:36:35.052Z,15.80
2017-09-25T04:39:02.511Z,15.80
2017-09-25T04:41:29.979Z,15.80
2017-09-25T04:43:57.445Z,15.70
2017-09-25T04:46:24.897Z,15.70
2017-09-25T04:48:52.385Z,15.70
2017-09-25T04:51:19.867Z,15.70
2017-09-25T04:53:47.330Z,15.70
2017-09-25T04:56:14.792Z,15.70
2017-09-25T04:58:42.270Z,15.60
2017-09-25T05:01:09.762Z,15.70
2017-09-25T05:03:37.242Z,15.70
2017-09-25T05:06:04.742Z,15.70
2017-09-25T05:08:32.967Z,15.90
2017-09-25T05:11:00.454Z,15.90
2017-09-25T05:13:27.931Z,15.90
2017-09-25T05:15:55.664Z,15.90
2017-09-25T05:18:23.120Z,15.80
2017-09-25T05:20:50.607Z,15.80
2017-09-25T05:23:18.081Z,15.80
2017-09-25T05:25:45.534Z,15.70
2017-09-25T05:28:13.027Z,15.70
2017-09-25T05:30:40.509Z,15.70
2017-09-25T05:33:07.994Z,15.80
2017-09-25T05:35:35.469Z,15.90
2017-09-25T05:38:02.954Z,15.80
2017-09-25T05:40:30.457Z,15.90
2017-09-25T05:42:57.931Z,16.00
2017-09-25T05:45:25.431Z,16.00
2017-09-25T05:47:52.930Z,16.00
2017-09-25T05:50:21.208Z,15.90
2017-09-25T05:52:48.705Z,15.90
2017-09-25T05:55:16.175Z,15.90
2017-09-25T05:57:43.645Z,15.80
2017-09-25T06:00:11.129Z,15.90
2017-09-25T06:02:38.579Z,16.00
2017-09-25T06:05:06.071Z,16.00
2017-09-25T06:07:33.591Z,16.00
2017-09-25T06:10:01.865Z,16.10
2017-09-25T06:12:29.329Z,16.00
2017-09-25T06:14:56.782Z,16.00
2017-09-25T06:17:24.257Z,16.10
2017-09-25T06:19:51.734Z,16.10
2017-09-25T06:22:19.194Z,16.10
2017-09-25T06:24:46.675Z,16.10
2017-09-25T06:27:14.143Z,16.10
2017-09-25T06:29:41.609Z,16.10
2017-09-25T06:32:09.059Z,16.00
2017-09-25T06:34:36.563Z,16.10
2017-09-25T06:37:04.821Z,16.10
2017-09-25T06:39:32.337Z,16.00
2017-09-25T06:41:59.815Z,16.10
2017-09-25T06:44:27.358Z,16.10
2017-09-25T06:46:54.862Z,16.20
2017-09-25T06:49:22.400Z,16.20
2017-09-25T06:51:49.904Z,16.10
2017-09-25T06:54:17.426Z,16.20
2017-09-25T06:56:44.956Z,16.30
2017-09-25T06:59:12.448Z,16.40
2017-09-25T07:01:39.974Z,16.30
2017-09-25T07:04:07.473Z,16.40
2017-09-25T07:06:35.030Z,16.40
2017-09-25T07:09:03.356Z,16.40
2017-09-25T07:11:30.955Z,16.40
2017-09-25T07:13:59.262Z,16.50
2017-09-25T07:16:26.736Z,16.40
2017-09-25T07:18:54.193Z,16.60
2017-09-25T07:21:21.676Z,16.50
2017-09-25T07:23:49.137Z,16.50
2017-09-25T07:26:16.594Z,16.50
2017-09-25T07:28:44.074Z,16.60
2017-09-25T07:31:11.552Z,16.60
2017-09-25T07:33:39.016Z,16.50
2017-09-25T07:36:06.478Z,16.60
2017-09-25T07:38:33.943Z,16.70
2017-09-25T07:41:01.417Z,16.70
2017-09-25T07:43:28.878Z,16.70
2017-09-25T07:45:56.384Z,16.80
2017-09-25T07:48:23.859Z,17.10
2017-09-25T07:50:51.330Z,17.10
2017-09-25T07:53:18.823Z,17.20
2017-09-25T07:55:46.290Z,17.40
2017-09-25T07:58:13.782Z,17.50
2017-09-25T08:00:41.262Z,17.60
2017-09-25T08:03:08.740Z,17.50
2017-09-25T08:05:36.203Z,17.50
2017-09-25T08:08:03.702Z,17.60
2017-09-25T08:10:31.968Z,17.50
2017-09-25T08:13:00.231Z,17.40
2017-09-25T08:15:28.478Z,17.20
2017-09-25T08:17:55.945Z,17.30
2017-09-25T08:20:23.414Z,17.20
2017-09-25T08:22:50.917Z,17.30
2017-09-25T08:25:18.714Z,17.30
2017-09-25T08:27:46.185Z,17.40
2017-09-25T08:30:13.672Z,17.40
2017-09-25T08:32:41.419Z,17.50
2017-09-25T08:35:08.924Z,17.60
2017-09-25T08:37:36.396Z,17.40
2017-09-25T08:40:03.893Z,17.50
2017-09-25T08:42:31.374Z,17.50
2017-09-25T08:44:59.603Z,17.70
2017-09-25T08:47:27.067Z,17.60
2017-09-25T08:49:54.527Z,17.70
2017-09-25T08:52:22.055Z,17.70
2017-09-25T08:54:49.579Z,17.70
2017-09-25T08:57:17.814Z,17.80
2017-09-25T08:59:45.282Z,17.70
2017-09-25T09:02:13.659Z,17.80
2017-09-25T09:04:41.140Z,17.90
2017-09-25T09:07:08.624Z,17.90
2017-09-25T09:09:36.118Z,17.90
2017-09-25T09:12:03.592Z,17.80
2017-09-25T09:14:31.073Z,17.90
2017-09-25T09:16:59.322Z,18.00
2017-09-25T09:19:26.822Z,18.00
2017-09-25T09:21:54.306Z,18.10
2017-09-25T09:26:56.063Z,18.30
2017-09-25T09:29:23.607Z,18.30
2017-09-25T09:31:51.077Z,18.30
2017-09-25T09:34:18.534Z,18.30
2017-09-25T09:36:46.096Z,18.30
2017-09-25T09:39:13.634Z,18.30
2017-09-25T09:41:41.152Z,18.30
2017-09-25T09:44:08.635Z,18.30
2017-09-25T09:46:36.110Z,18.40
2017-09-25T09:49:03.628Z,18.30
2017-09-25T09:51:31.124Z,18.40
2017-09-25T09:53:59.417Z,18.30
2017-09-25T09:56:26.902Z,18.30
2017-09-25T09:58:54.710Z,18.30
2017-09-25T10:01:22.186Z,18.30
2017-09-25T10:03:49.635Z,18.30
2017-09-25T10:06:17.158Z,18.20
2017-09-25T10:08:44.726Z,18.20
2017-09-25T10:11:12.189Z,18.20
2017-09-25T10:13:39.660Z,18.20
2017-09-25T10:16:07.122Z,18.40
2017-09-25T10:18:34.600Z,18.40
2017-09-25T10:21:02.079Z,18.50
2017-09-25T10:23:30.569Z,18.50
2017-09-25T10:25:58.072Z,18.60
2017-09-25T10:28:25.552Z,18.50
2017-09-25T10:30:53.413Z,18.40
2017-09-25T10:33:20.876Z,18.30
2017-09-25T10:35:48.363Z,18.30
2017-09-25T10:38:15.842Z,18.30
2017-09-25T10:40:43.340Z,18.40
2017-09-25T10:43:10.906Z,18.40
2017-09-25T10:45:38.398Z,18.40
2017-09-25T10:48:05.902Z,18.50
2017-09-25T10:50:33.398Z,18.70
2017-09-25T10:53:00.916Z,18.80
2017-09-25T10:55:28.437Z,19.00
2017-09-25T10:57:55.941Z,19.20
2017-09-25T11:00:24.211Z,19.20
2017-09-25T11:05:17.481Z,19.10
2017-09-25T11:07:45.156Z,19.20
2017-09-25T11:10:12.667Z,19.10
2017-09-25T11:12:40.168Z,19.00
2017-09-25T11:15:07.810Z,19.00
2017-09-25T11:17:36.046Z,19.10
2017-09-25T11:20:03.570Z,19.10
2017-09-25T11:22:31.084Z,19.10
2017-09-25T11:24:59.030Z,19.20
2017-09-25T11:27:26.528Z,19.20
2017-09-25T11:29:54.014Z,19.20
2017-09-25T11:32:21.471Z,19.20
2017-09-25T11:34:48.930Z,19.20
2017-09-25T11:37:16.653Z,19.10
2017-09-25T11:39:44.140Z,19.00
2017-09-25T11:42:12.166Z,19.00
2017-09-25T11:44:39.670Z,19.20
2017-09-25T11:47:07.189Z,19.30
2017-09-25T11:49:34.690Z,19.40
2017-09-25T11:52:02.190Z,19.50
2017-09-25T11:54:29.693Z,19.50
2017-09-25T11:56:57.972Z,19.50
2017-09-25T11:59:26.257Z,19.40
2017-09-25T12:01:53.727Z,19.40
2017-09-25T12:04:21.211Z,19.40
2017-09-25T12:06:48.709Z,19.30
2017-09-25T12:09:16.977Z,19.30
2017-09-25T12:11:45.253Z,19.20
2017-09-25T12:14:12.729Z,19.20
2017-09-25T12:16:40.270Z,19.30
2017-09-25T12:19:07.737Z,19.30
2017-09-25T12:21:35.258Z,19.40
2017-09-25T12:24:02.760Z,19.50
2017-09-25T12:26:30.402Z,19.50
2017-09-25T12:28:57.994Z,19.50
2017-09-25T12:31:25.535Z,19.40
2017-09-25T12:33:53.090Z,19.30
2017-09-25T12:36:20.576Z,19.30
2017-09-25T12:38:48.110Z,19.30
2017-09-25T12:41:15.617Z,19.40
2017-09-25T12:43:43.230Z,19.50
2017-09-25T12:46:10.707Z,19.60
2017-09-25T12:48:38.559Z,19.90
2017-09-25T12:51:06.118Z,20.00
2017-09-25T12:53:33.666Z,20.20
2017-09-25T12:56:01.219Z,20.30
2017-09-25T12:58:28.682Z,20.50
2017-09-25T13:00:56.246Z,20.50
2017-09-25T13:03:23.810Z,20.60
2017-09-25T13:05:51.455Z,20.60
2017-09-25T13:08:18.939Z,20.60
2017-09-25T13:10:46.484Z,20.20
2017-09-25T13:13:14.756Z,19.80
2017-09-25T13:15:42.831Z,19.70
2017-09-25T13:18:10.397Z,19.80
2017-09-25T13:20:38.034Z,19.80
2017-09-25T13:23:05.579Z,19.80
2017-09-25T13:25:33.390Z,19.80
2017-09-25T13:28:01.856Z,19.70
2017-09-25T13:30:29.369Z,19.80
2017-09-25T13:32:56.979Z,19.80
2017-09-25T13:35:24.498Z,19.80
2017-09-25T13:40:25.980Z,19.80
2017-09-25T13:42:53.532Z,19.90
2017-09-25T13:45:21.096Z,19.60
2017-09-25T13:47:48.858Z,19.50
2017-09-25T13:50:16.330Z,19.20
2017-09-25T13:52:44.017Z,18.50
2017-09-25T13:55:11.558Z,18.20
2017-09-25T13:57:39.106Z,17.80
2017-09-25T14:02:39.552Z,17.10
2017-09-25T14:05:07.064Z,16.80
2017-09-25T14:07:34.587Z,16.50
2017-09-25T14:10:02.138Z,16.30
2017-09-25T14:12:29.655Z,16.20
2017-09-25T14:14:57.147Z,16.10
2017-09-25T14:17:24.619Z,16.20
2017-09-25T14:19:52.155Z,16.10
2017-09-25T14:22:19.625Z,16.20
2017-09-25T14:24:47.190Z,16.30
2017-09-25T14:27:14.653Z,16.40
2017-09-25T14:29:42.213Z,16.50
2017-09-25T14:32:09.736Z,16.60
2017-09-25T14:34:37.242Z,16.80
2017-09-25T14:37:04.776Z,16.90
2017-09-25T14:39:32.339Z,17.10
2017-09-25T14:41:59.871Z,17.20
2017-09-25T14:44:27.355Z,17.20
2017-09-25T14:46:56.120Z,17.20
2017-09-25T14:49:23.686Z,17.30
2017-09-25T14:51:51.155Z,17.30
2017-09-25T14:54:18.675Z,17.40
2017-09-25T14:56:46.179Z,17.40
2017-09-25T14:59:13.723Z,17.40
2017-09-25T15:01:41.270Z,17.20
2017-09-25T15:04:09.531Z,17.10
2017-09-25T15:06:37.025Z,17.10
2017-09-25T15:09:04.527Z,17.20
2017-09-25T15:11:32.035Z,17.10
2017-09-25T15:13:59.551Z,17.10
2017-09-25T15:16:27.059Z,17.10
2017-09-25T15:18:54.615Z,17.10
2017-09-25T15:21:22.189Z,17.20
2017-09-25T15:23:50.447Z,17.40
2017-09-25T15:26:18.012Z,17.40
2017-09-25T15:28:45.563Z,17.50
2017-09-25T15:31:13.105Z,17.60
2017-09-25T15:33:40.598Z,17.70
2017-09-25T15:36:09.567Z,17.60
2017-09-25T15:38:37.042Z,17.60
2017-09-25T15:41:04.595Z,17.50
2017-09-25T15:43:32.323Z,17.50
2017-09-25T15:45:59.882Z,17.50
2017-09-25T15:48:27.363Z,17.50
2017-09-25T15:50:55.643Z,17.60
2017-09-25T15:53:23.586Z,17.60
2017-09-25T15:55:51.100Z,17.50
2017-09-25T15:58:18.642Z,17.50
2017-09-25T16:00:46.185Z,17.50
2017-09-25T16:03:13.719Z,17.40
2017-09-25T16:05:41.208Z,17.40
2017-09-25T16:08:09.530Z,17.30
2017-09-25T16:10:37.049Z,17.30
2017-09-25T16:13:04.615Z,17.20
2017-09-25T16:15:32.138Z,17.30
2017-09-25T16:17:59.844Z,17.40
2017-09-25T16:20:27.474Z,17.50
2017-09-25T16:22:55.730Z,17.40
2017-09-25T16:25:23.230Z,17.40
2017-09-25T16:27:51.201Z,17.50
2017-09-25T16:30:18.727Z,17.50
2017-09-25T16:32:47.082Z,17.60
2017-09-25T16:35:14.586Z,17.60
2017-09-25T16:37:42.086Z,17.60
2017-09-25T16:40:09.819Z,17.50
2017-09-25T16:42:37.355Z,17.50
2017-09-25T16:45:04.914Z,17.40
2017-09-25T16:47:32.516Z,17.40
2017-09-25T16:50:00.028Z,17.30
2017-09-25T16:52:27.863Z,17.30
2017-09-25T16:54:55.574Z,17.30
2017-09-25T16:57:23.115Z,17.10
2017-09-25T16:59:50.676Z,17.20
2017-09-25T17:02:18.289Z,17.10
2017-09-25T17:04:45.805Z,17.00
2017-09-25T17:07:13.538Z,16.90
2017-09-25T17:09:42.025Z,16.80
2017-09-25T17:12:09.519Z,16.80
2017-09-25T17:14:37.064Z,16.80
2017-09-25T17:17:04.628Z,16.70
2017-09-25T17:19:34.023Z,16.70
2017-09-25T17:22:01.666Z,16.60
2017-09-25T17:24:29.202Z,16.50
2017-09-25T17:26:57.463Z,16.50
2017-09-25T17:29:24.986Z,16.40
2017-09-25T17:31:52.641Z,16.40
2017-09-25T17:34:20.199Z,16.30
2017-09-25T17:36:47.738Z,16.30
2017-09-25T17:39:15.409Z,16.30
2017-09-25T17:41:43.000Z,16.30
2017-09-25T17:44:11.019Z,16.20
2017-09-25T17:46:38.514Z,16.20
2017-09-25T17:49:06.054Z,16.30
2017-09-25T17:51:33.655Z,16.30
2017-09-25T17:54:02.387Z,16.30
2017-09-25T17:56:31.277Z,16.30
2017-09-25T17:59:00.186Z,16.20
2017-09-25T18:01:27.755Z,16.20
2017-09-25T18:03:55.317Z,16.20
2017-09-25T18:06:22.870Z,16.30
2017-09-25T18:08:57.277Z,16.30
2017-09-25T18:11:24.929Z,16.20
2017-09-25T18:13:52.691Z,16.30
2017-09-25T18:16:20.758Z,16.30
2017-09-25T18:18:48.251Z,16.20
2017-09-25T18:21:15.806Z,16.10
2017-09-25T18:23:43.349Z,16.00
2017-09-25T18:26:11.143Z,16.00
2017-09-25T18:28:38.687Z,16.00
2017-09-25T18:31:06.191Z,16.00
2017-09-25T18:33:33.709Z,16.00
2017-09-25T18:36:01.251Z,16.00
2017-09-25T18:38:30.521Z,16.10
2017-09-25T18:40:58.083Z,16.10
2017-09-25T18:43:25.631Z,16.20
2017-09-25T18:45:53.154Z,16.30
2017-09-25T18:48:20.717Z,16.30
2017-09-25T18:50:48.583Z,16.30
2017-09-25T18:53:16.186Z,16.20
2017-09-25T18:55:43.742Z,16.30
2017-09-25T18:58:14.781Z,16.30
2017-09-25T19:00:42.275Z,16.30
2017-09-25T19:03:09.836Z,16.20
2017-09-25T19:05:37.401Z,16.10
2017-09-25T19:08:04.963Z,15.90
2017-09-25T19:10:32.498Z,15.80
2017-09-25T19:13:00.073Z,15.80
2017-09-25T19:15:27.585Z,15.80
2017-09-25T19:17:55.079Z,15.70
2017-09-25T19:20:22.605Z,15.70
2017-09-25T19:22:50.160Z,15.60
2017-09-25T19:25:19.424Z,15.60
2017-09-25T19:27:47.355Z,15.60
2017-09-25T19:30:14.852Z,15.60
2017-09-25T19:32:42.486Z,15.60
2017-09-25T19:35:10.826Z,15.60
2017-09-25T19:37:38.367Z,15.60
2017-09-25T19:40:06.824Z,15.60
2017-09-25T19:42:47.776Z,15.70
2017-09-25T19:45:15.429Z,15.70
2017-09-25T19:48:03.826Z,15.80
2017-09-25T19:50:38.549Z,15.80
2017-09-25T19:53:10.158Z,15.80
2017-09-25T19:55:39.289Z,15.90
2017-09-25T19:58:22.015Z,15.90
2017-09-25T20:00:49.711Z,15.80
2017-09-25T20:03:17.872Z,15.70
2017-09-25T20:05:45.750Z,15.70
2017-09-25T20:08:15.819Z,15.70
2017-09-25T20:10:52.190Z,15.80
2017-09-25T20:13:19.796Z,15.80
2017-09-25T20:18:47.811Z,15.80
2017-09-25T20:21:15.593Z,15.80
2017-09-25T20:23:43.148Z,15.80
2017-09-25T20:26:10.701Z,15.80
2017-09-25T20:28:38.869Z,15.80
2017-09-25T20:31:06.647Z,15.80
2017-09-25T20:33:35.657Z,15.80
2017-09-25T20:36:08.349Z,15.80
2017-09-25T20:38:35.921Z,15.70
2017-09-25T20:41:05.583Z,15.70
2017-09-25T20:43:35.044Z,15.70
2017-09-25T20:46:02.811Z,15.80
2017-09-25T20:48:30.334Z,15.80
2017-09-25T20:50:58.010Z,15.70
2017-09-25T20:53:25.552Z,15.70
2017-09-25T20:55:53.102Z,15.70
2017-09-25T20:58:20.601Z,15.70
2017-09-25T21:00:48.419Z,15.70
2017-09-25T21:03:15.985Z,15.70
2017-09-25T21:05:43.530Z,15.70
2017-09-25T21:08:11.055Z,15.70
2017-09-25T21:10:38.644Z,15.70
2017-09-25T21:13:06.298Z,15.70
2017-09-25T21:15:33.970Z,15.70
2017-09-25T21:18:01.485Z,15.70
2017-09-25T21:20:29.114Z,15.70
2017-09-25T21:22:56.651Z,15.70
2017-09-25T21:25:24.770Z,15.60
2017-09-25T21:27:52.273Z,15.70
2017-09-25T21:30:19.785Z,15.60
2017-09-25T21:32:47.284Z,15.60
2017-09-25T21:35:15.566Z,15.40
2017-09-25T21:37:43.060Z,15.50
2017-09-25T21:40:10.602Z,15.40
2017-09-25T21:42:38.095Z,15.30
2017-09-25T21:45:05.631Z,15.40
2017-09-25T21:47:33.226Z,15.30
2017-09-25T21:50:00.719Z,15.30
2017-09-25T21:52:28.222Z,15.30
2017-09-25T21:54:55.693Z,15.30
2017-09-25T21:57:23.190Z,15.20
2017-09-25T21:59:50.662Z,15.30
2017-09-25T22:02:18.204Z,15.20
2017-09-25T22:04:45.751Z,15.20
2017-09-25T22:07:13.281Z,15.20
2017-09-25T22:09:40.805Z,15.30
2017-09-25T22:12:08.303Z,15.30
2017-09-25T22:14:35.803Z,15.30
2017-09-25T22:17:03.608Z,15.30
2017-09-25T22:19:31.115Z,15.30
2017-09-25T22:21:58.606Z,15.30
2017-09-25T22:24:26.110Z,15.30
2017-09-25T22:26:53.603Z,15.30
2017-09-25T22:29:21.886Z,15.30
2017-09-25T22:31:49.370Z,15.30
2017-09-25T22:34:16.863Z,15.40
2017-09-25T22:36:44.355Z,15.40
2017-09-25T22:39:12.637Z,15.20
2017-09-25T22:41:40.147Z,15.20
2017-09-25T22:44:15.207Z,15.20
2017-09-25T22:46:42.792Z,15.10
2017-09-25T22:49:10.743Z,15.10
2017-09-25T22:51:38.243Z,15.10
2017-09-25T22:54:05.931Z,15.10
2017-09-25T22:56:33.587Z,15.00
2017-09-25T22:59:01.863Z,15.10
2017-09-25T23:01:29.357Z,15.10
2017-09-25T23:03:56.864Z,15.10
2017-09-25T23:06:24.359Z,15.10
2017-09-25T23:08:52.658Z,15.20
2017-09-25T23:11:20.708Z,15.10
2017-09-25T23:13:48.215Z,15.10
2017-09-25T23:16:15.740Z,15.20
2017-09-25T23:18:43.199Z,15.20
2017-09-25T23:21:10.771Z,15.20
2017-09-25T23:23:38.248Z,15.20
2017-09-25T23:26:05.710Z,15.20
2017-09-25T23:28:33.176Z,15.30
2017-09-25T23:31:03.218Z,15.20
2017-09-25T23:33:30.681Z,15.30
2017-09-25T23:35:58.157Z,15.20
2017-09-25T23:38:25.619Z,15.30
2017-09-25T23:40:53.075Z,15.20
2017-09-25T23:43:20.539Z,15.20
2017-09-25T23:45:47.994Z,15.20
2017-09-25T23:48:15.445Z,15.10
2017-09-25T23:50:42.906Z,15.10
2017-09-25T23:53:10.363Z,15.10
2017-09-25T23:55:37.822Z,15.10
2017-09-25T23:58:05.281Z,15.10
